Time;durP1;ratioP1;P1;durP2;ratioP2;P2;SDS_P1;SDS_P2;PMS_P1;PMS_P2;Temp;Humidity;BMP_temperature;BMP_pressure;BME280_temperature;BME280_humidity;BME280_pressure;Samples;Min_cycle;Max_cycle;Signal;HPM_P1;HPM_P2
2022/06/08 00:08:22;;;;;;;3.62;1.67;;;14.90;99.90;;;;;;6733622;88;20181;-80
2022/06/08 00:18:23;;;;;;;3.80;1.90;;;14.90;99.90;;;;;;6729322;88;20722;-81
2022/06/08 00:28:24;;;;;;;3.17;2.03;;;14.90;99.90;;;;;;6713696;88;20556;-81
2022/06/08 00:38:24;;;;;;;3.37;2.70;;;15.10;99.90;;;;;;6713610;88;20175;-81
2022/06/08 00:48:29;;;;;;;6.82;2.92;;;15.10;99.90;;;;;;6713488;88;20237;-81
2022/06/08 00:58:33;;;;;;;3.72;3.10;;;15.10;99.90;;;;;;6729115;88;20186;-81
2022/06/08 01:08:36;;;;;;;4.15;2.70;;;15.20;99.90;;;;;;6733452;88;20170;-82
2022/06/08 01:18:38;;;;;;;3.78;2.53;;;15.10;99.90;;;;;;6729648;88;20191;-81
2022/06/08 01:28:53;;;;;;;5.70;2.67;;;15.20;99.90;;;;;;6733248;88;20806;-82
2022/06/08 01:39:03;;;;;;;3.72;2.10;;;15.10;99.90;;;;;;6712168;88;20214;-82
2022/06/08 01:49:27;;;;;;;3.53;2.15;;;15.10;99.90;;;;;;6715754;88;20356;-80
2022/06/08 01:59:59;;;;;;;3.62;2.30;;;15.20;99.90;;;;;;6715941;88;20271;-82
2022/06/08 02:10:15;;;;;;;2.78;2.00;;;15.10;99.90;;;;;;6596234;90;20179;-81
2022/06/08 02:20:21;;;;;;;2.85;2.00;;;15.20;99.90;;;;;;6614184;89;20174;-81
2022/06/08 02:30:25;;;;;;;5.10;2.20;;;15.10;99.90;;;;;;6598905;90;20243;-80
2022/06/08 02:40:30;;;;;;;5.47;2.33;;;15.00;99.90;;;;;;6655451;88;20354;-81
2022/06/08 02:50:32;;;;;;;;;;;14.70;99.90;;;;;;6713242;88;20233;-81
2022/06/08 03:00:45;;;;;;;5.37;2.55;;;14.70;99.90;;;;;;6716909;88;20070;-81
2022/06/08 03:10:48;;;;;;;3.80;2.20;;;14.60;99.90;;;;;;6716622;88;20205;-81
2022/06/08 03:20:48;;;;;;;5.10;2.37;;;14.60;99.90;;;;;;6716372;88;20186;-80
2022/06/08 03:30:49;;;;;;;3.10;2.17;;;14.60;99.90;;;;;;6697164;88;20248;-81
2022/06/08 03:40:50;;;;;;;5.55;2.78;;;14.60;99.90;;;;;;6697569;88;20621;-80
2022/06/08 03:50:53;;;;;;;4.87;2.87;;;14.60;99.90;;;;;;6646945;89;20201;-81
2022/06/08 04:00:55;;;;;;;5.60;3.10;;;14.70;99.90;;;;;;6660165;89;20302;-81
2022/06/08 04:10:55;;;;;;;4.82;2.97;;;14.80;99.90;;;;;;6679307;89;20202;-80
2022/06/08 04:20:58;;;;;;;5.12;3.85;;;14.70;99.90;;;;;;6738678;88;20263;-80
2022/06/08 04:30:58;;;;;;;6.53;4.10;;;14.80;99.90;;;;;;6749384;88;20288;-81
2022/06/08 04:41:01;;;;;;;5.90;3.87;;;14.80;99.90;;;;;;6729690;88;20924;-81
2022/06/08 04:51:03;;;;;;;6.43;3.53;;;14.80;99.90;;;;;;6729034;88;20606;-81
2022/06/08 05:01:04;;;;;;;6.18;3.30;;;14.90;99.90;;;;;;6712408;88;20809;-81
2022/06/08 05:11:05;;;;;;;4.70;3.55;;;15.00;99.90;;;;;;6712032;88;20182;-80
2022/06/08 05:21:05;;;;;;;5.60;3.20;;;15.20;99.90;;;;;;6725680;88;20234;-80
2022/06/08 05:41:09;;;;;;;4.65;2.40;;;15.50;99.90;;;;;;6701640;88;20225;-80
2022/06/08 05:51:10;;;;;;;3.45;2.37;;;15.70;99.90;;;;;;6698595;88;20219;-81
2022/06/08 06:01:11;;;;;;;4.10;2.30;;;15.90;99.90;;;;;;6703910;88;20660;-80
2022/06/08 06:11:13;;;;;;;2.50;1.90;;;16.10;99.90;;;;;;6703050;88;20219;-82
2022/06/08 06:21:17;;;;;;;3.30;1.62;;;16.40;99.90;;;;;;6702178;88;20191;-81
2022/06/08 06:31:22;;;;;;;3.00;1.60;;;16.80;99.90;;;;;;6702908;88;20669;-81
2022/06/08 06:41:22;;;;;;;;;;;16.70;99.90;;;;;;6703173;88;20210;-80
2022/06/08 06:51:23;;;;;;;3.35;1.48;;;17.00;99.90;;;;;;6697286;88;20471;-80
2022/06/08 07:01:23;;;;;;;5.25;1.55;;;17.20;99.90;;;;;;6701316;88;20224;-79
2022/06/08 07:11:35;;;;;;;4.53;1.75;;;17.40;99.90;;;;;;6697434;88;20203;-80
2022/06/08 07:21:36;;;;;;;2.90;1.50;;;17.50;99.90;;;;;;6692316;88;20190;-80
2022/06/08 07:31:36;;;;;;;4.43;1.77;;;17.60;99.90;;;;;;6698900;88;20295;-80
2022/06/08 07:41:37;;;;;;;3.75;1.67;;;17.90;99.90;;;;;;6696128;88;20186;-79
2022/06/08 07:51:37;;;;;;;4.37;1.73;;;18.00;99.90;;;;;;6699780;88;20212;-80
2022/06/08 08:01:38;;;;;;;3.28;1.40;;;18.10;99.90;;;;;;6700710;88;20199;-80
2022/06/08 08:11:39;;;;;;;4.45;1.30;;;18.30;99.90;;;;;;6701436;88;20206;-79
2022/06/08 08:21:40;;;;;;;5.35;1.50;;;19.00;99.90;;;;;;6696839;88;20245;-81
2022/06/08 08:31:41;;;;;;;7.72;1.30;;;19.20;99.90;;;;;;6703144;88;20318;-81
2022/06/08 08:52:12;;;;;;;2.92;1.08;;;20.30;99.90;;;;;;6682437;89;20182;-81
2022/06/08 09:03:14;;;;;;;4.47;0.98;;;21.10;99.90;;;;;;6684193;89;20176;-80
2022/06/08 09:12:36;;;;;;;5.18;1.45;;;22.90;99.90;;;;;;6682045;89;20267;-80
2022/06/08 09:22:38;;;;;;;3.62;1.08;;;21.50;99.90;;;;;;6682838;89;20576;-80
2022/06/08 09:32:49;;;;;;;3.75;1.00;;;20.70;99.90;;;;;;6683978;89;20236;-80
2022/06/08 09:43:18;;;;;;;6.60;1.87;;;20.30;99.90;;;;;;6682809;89;20290;-81
2022/06/08 09:53:39;;;;;;;4.43;1.20;;;20.10;99.90;;;;;;6680643;89;20184;-81
2022/06/08 10:04:01;;;;;;;7.85;1.27;;;20.50;99.90;;;;;;6683305;88;20218;-80
2022/06/08 10:14:41;;;;;;;5.10;1.10;;;21.30;99.90;;;;;;6676731;89;20277;-80
2022/06/08 10:24:50;;;;;;;2.97;0.95;;;21.60;99.90;;;;;;6679396;89;20196;-80
2022/06/08 10:34:54;;;;;;;4.07;1.12;;;21.10;99.90;;;;;;6681340;89;20180;-80
2022/06/08 10:44:55;;;;;;;3.20;1.20;;;20.50;99.90;;;;;;6679101;89;20212;-80
2022/06/08 10:55:18;;;;;;;4.32;1.20;;;18.80;99.90;;;;;;6682176;89;20237;-80
2022/06/08 11:05:33;;;;;;;6.55;1.40;;;18.20;99.90;;;;;;6680437;89;20238;-82
2022/06/08 11:15:38;;;;;;;;;;;18.00;99.90;;;;;;6681754;89;20339;-80
2022/06/08 11:25:52;;;;;;;5.00;1.70;;;17.70;99.90;;;;;;6679841;89;20100;-79
2022/06/08 11:36:33;;;;;;;4.93;1.80;;;17.60;99.90;;;;;;6695373;77;20182;-82
2022/06/08 11:46:39;;;;;;;5.93;1.52;;;17.50;99.90;;;;;;6703264;88;20637;-80
2022/06/08 11:57:07;;;;;;;4.70;1.75;;;17.80;99.90;;;;;;6706506;88;20624;-80
2022/06/08 12:07:30;;;;;;;4.30;1.77;;;17.90;99.90;;;;;;6685520;89;20191;-81
2022/06/08 12:17:34;;;;;;;4.45;1.55;;;17.90;99.90;;;;;;6685696;89;20175;-81
2022/06/08 12:27:53;;;;;;;6.90;1.80;;;18.00;99.90;;;;;;6689244;89;20744;-81
2022/06/08 12:38:27;;;;;;;8.20;2.00;;;17.90;99.90;;;;;;6684616;88;20203;-81
2022/06/08 12:48:37;;;;;;;6.85;2.20;;;17.90;99.90;;;;;;6674033;89;20211;-80
2022/06/08 12:58:37;;;;;;;8.57;2.30;;;17.90;99.90;;;;;;6675742;89;20276;-81
2022/06/08 13:08:39;;;;;;;6.90;2.17;;;17.90;99.90;;;;;;6675616;89;20664;-81
2022/06/08 13:18:40;;;;;;;7.10;2.20;;;17.90;99.90;;;;;;6676852;89;20280;-81
2022/06/08 13:28:41;;;;;;;6.18;2.12;;;18.00;99.90;;;;;;6674856;89;20622;-81
2022/06/08 13:38:42;;;;;;;7.03;1.73;;;17.90;99.90;;;;;;6681788;88;20196;-82
2022/06/08 13:48:42;;;;;;;6.62;2.50;;;17.30;99.90;;;;;;6697306;88;20823;-81
2022/06/08 13:58:43;;;;;;;7.57;2.55;;;17.20;99.90;;;;;;6678919;89;20201;-83
2022/06/08 14:19:36;;;;;;;9.18;2.00;;;17.30;99.90;;;;;;6682034;89;20181;-81
2022/06/08 14:29:37;;;;;;;5.90;1.92;;;17.20;99.90;;;;;;6666577;89;20858;-81
2022/06/08 14:39:39;;;;;;;3.22;1.70;;;16.90;99.90;;;;;;6645645;89;20938;-80
2022/06/08 14:49:40;;;;;;;3.28;1.60;;;16.70;99.90;;;;;;6647736;89;20198;-81
2022/06/08 14:59:41;;;;;;;4.97;1.73;;;16.50;99.90;;;;;;6644086;89;20778;-81
2022/06/08 15:09:42;;;;;;;7.47;2.30;;;16.50;99.90;;;;;;6672173;89;20248;-80
2022/06/08 15:19:54;;;;;;;3.92;1.85;;;16.70;99.90;;;;;;6682882;88;20223;-80
2022/06/08 15:29:56;;;;;;;4.12;1.98;;;16.70;99.90;;;;;;6695448;88;20758;-81
2022/06/08 15:39:58;;;;;;;5.55;1.90;;;16.80;99.90;;;;;;6693470;88;20776;-82
2022/06/08 15:49:59;;;;;;;4.60;1.60;;;17.00;99.90;;;;;;6693464;89;20236;-83
2022/06/08 16:00:05;;;;;;;4.03;1.70;;;17.30;99.90;;;;;;6657546;89;20215;-82
2022/06/08 16:10:07;;;;;;;3.47;2.00;;;17.20;99.90;;;;;;6651435;89;20200;-81
2022/06/08 16:20:10;;;;;;;5.43;1.50;;;17.30;99.90;;;;;;6660084;89;20268;-81
2022/06/08 16:30:17;;;;;;;2.00;0.80;;;17.30;99.90;;;;;;6682476;89;20209;-81
2022/06/08 16:40:22;;;;;;;1.67;0.73;;;16.50;99.90;;;;;;6687414;89;20530;-81
2022/06/08 16:50:24;;;;;;;1.10;0.40;;;16.10;99.90;;;;;;6680567;89;20213;-83
2022/06/08 17:00:25;;;;;;;1.10;0.50;;;15.90;99.90;;;;;;6686594;89;20695;-82
2022/06/08 17:10:25;;;;;;;4.67;0.70;;;15.70;99.90;;;;;;6684243;89;20335;-82
2022/06/08 17:20:26;;;;;;;2.15;0.73;;;15.50;99.90;;;;;;6682546;89;20522;-81
2022/06/08 17:30:47;;;;;;;1.10;0.55;;;15.60;99.90;;;;;;6677929;89;20194;-82
2022/06/08 17:40:48;;;;;;;1.77;0.80;;;15.70;99.90;;;;;;6676245;89;20288;-80
2022/06/08 17:50:49;;;;;;;2.10;0.90;;;15.90;99.90;;;;;;6669647;89;20215;-80
2022/06/08 18:00:49;;;;;;;4.78;0.75;;;15.90;99.90;;;;;;6663678;89;20275;-80
2022/06/08 18:10:50;;;;;;;2.20;0.70;;;16.00;99.90;;;;;;6669397;89;20698;-80
2022/06/08 18:20:52;;;;;;;2.55;0.95;;;16.10;99.90;;;;;;6670321;89;20194;-81
2022/06/08 18:30:53;;;;;;;6.35;1.33;;;16.20;99.90;;;;;;6669618;89;20187;-80
2022/06/08 18:40:56;;;;;;;5.37;1.48;;;16.10;99.90;;;;;;6674878;89;20204;-81
2022/06/08 18:50:56;;;;;;;7.80;1.77;;;16.00;99.90;;;;;;6667824;89;20196;-80
2022/06/08 19:00:57;;;;;;;4.10;1.50;;;15.70;99.90;;;;;;6672445;89;20225;-80
2022/06/08 19:10:58;;;;;;;8.05;2.10;;;15.40;99.90;;;;;;6671336;89;20184;-80
2022/06/08 19:21:00;;;;;;;5.62;1.90;;;15.60;99.90;;;;;;6677776;89;20216;-81
2022/06/08 19:31:01;;;;;;;8.30;2.05;;;15.30;99.90;;;;;;6678789;89;20296;-80
2022/06/08 19:41:03;;;;;;;6.15;1.80;;;15.20;99.90;;;;;;6674180;89;20184;-81
2022/06/08 19:51:05;;;;;;;6.30;2.17;;;15.20;99.90;;;;;;6672120;89;20216;-81
2022/06/08 20:01:06;;;;;;;9.52;2.40;;;15.70;99.90;;;;;;6669139;89;20196;-80
2022/06/08 20:11:07;;;;;;;7.72;2.65;;;15.50;99.90;;;;;;6669766;89;20193;-81
2022/06/08 20:21:09;;;;;;;6.80;2.33;;;15.50;99.90;;;;;;6674008;89;20794;-81
2022/06/08 20:31:11;;;;;;;5.25;2.33;;;15.60;99.90;;;;;;6672773;89;20179;-81
2022/06/08 20:41:12;;;;;;;7.60;2.50;;;15.50;99.90;;;;;;6673284;89;20280;-82
2022/06/08 20:51:13;;;;;;;7.47;2.30;;;15.40;99.90;;;;;;6680062;89;20209;-81
2022/06/08 21:01:15;;;;;;;6.03;2.30;;;15.10;99.90;;;;;;6669406;89;20251;-81
2022/06/08 21:11:19;;;;;;;5.35;2.25;;;14.90;99.90;;;;;;6670641;89;20555;-81
2022/06/08 21:21:20;;;;;;;5.53;1.97;;;14.80;99.90;;;;;;6681584;89;20219;-81
2022/06/08 21:31:24;;;;;;;8.07;2.53;;;14.90;99.90;;;;;;6685550;89;20815;-82
2022/06/08 21:41:25;;;;;;;7.28;2.25;;;14.60;99.90;;;;;;6668862;89;20180;-80
2022/06/08 21:51:26;;;;;;;7.03;2.05;;;14.50;99.90;;;;;;6674047;89;20213;-84
2022/06/08 22:01:27;;;;;;;7.78;2.22;;;14.30;99.90;;;;;;6669588;89;20733;-81
2022/06/08 22:11:28;;;;;;;8.10;2.22;;;14.10;99.90;;;;;;6664252;89;20290;-80
2022/06/08 22:21:29;;;;;;;5.32;1.60;;;14.30;99.90;;;;;;6662969;89;20602;-81
2022/06/08 22:31:29;;;;;;;4.85;1.90;;;14.40;99.90;;;;;;6659665;89;20652;-82
2022/06/08 22:41:30;;;;;;;6.00;1.80;;;14.50;99.90;;;;;;6664892;89;20204;-80
2022/06/08 22:51:31;;;;;;;6.97;1.85;;;14.40;99.90;;;;;;6663895;89;20639;-81
2022/06/08 23:01:31;;;;;;;9.02;1.70;;;14.30;99.90;;;;;;6663894;89;20213;-80
2022/06/08 23:11:41;;;;;;;4.57;1.58;;;14.30;99.90;;;;;;6664912;89;20204;-82
2022/06/08 23:21:42;;;;;;;4.03;1.52;;;14.30;99.90;;;;;;6662406;89;20204;-80
2022/06/08 23:41:49;;;;;;;5.35;1.40;;;14.30;99.90;;;;;;6713789;88;20163;-81
2022/06/08 23:51:51;;;;;;;9.73;1.60;;;14.40;99.90;;;;;;6711320;88;20204;-81
